sensor_id;sensor_type;location;lat;lon;timestamp;temperature;humidity
21861;DHT22;11095;48.066;8.540;2023-07-20T00:01:44;17.90;99.90
21861;DHT22;11095;48.066;8.540;2023-07-20T00:04:11;17.90;99.90
21861;DHT22;11095;48.066;8.540;2023-07-20T00:06:36;17.80;99.90
21861;DHT22;11095;48.066;8.540;2023-07-20T00:09:06;17.80;99.90
21861;DHT22;11095;48.066;8.540;2023-07-20T00:11:36;17.70;99.90
21861;DHT22;11095;48.066;8.540;2023-07-20T00:14:02;17.60;99.90
21861;DHT22;11095;48.066;8.540;2023-07-20T00:16:27;17.60;99.90
21861;DHT22;11095;48.066;8.540;2023-07-20T00:18:53;17.60;99.90
21861;DHT22;11095;48.066;8.540;2023-07-20T00:21:19;17.60;99.90
21861;DHT22;11095;48.066;8.540;2023-07-20T00:23:45;17.50;99.90
21861;DHT22;11095;48.066;8.540;2023-07-20T00:26:11;17.50;99.90
21861;DHT22;11095;48.066;8.540;2023-07-20T00:28:36;17.40;99.90
21861;DHT22;11095;48.066;8.540;2023-07-20T00:31:02;17.30;99.90
21861;DHT22;11095;48.066;8.540;2023-07-20T00:33:28;17.30;99.90
21861;DHT22;11095;48.066;8.540;2023-07-20T00:35:53;17.20;99.90
21861;DHT22;11095;48.066;8.540;2023-07-20T00:38:19;17.20;99.90
21861;DHT22;11095;48.066;8.540;2023-07-20T00:40:45;17.20;99.90
21861;DHT22;11095;48.066;8.540;2023-07-20T00:43:11;17.20;99.90
21861;DHT22;11095;48.066;8.540;2023-07-20T00:45:37;17.10;99.90
21861;DHT22;11095;48.066;8.540;2023-07-20T00:48:05;17.10;99.90
21861;DHT22;11095;48.066;8.540;2023-07-20T00:50:32;17.10;99.90
21861;DHT22;11095;48.066;8.540;2023-07-20T00:52:58;17.10;99.90
21861;DHT22;11095;48.066;8.540;2023-07-20T00:55:25;17.00;99.90
21861;DHT22;11095;48.066;8.540;2023-07-20T00:57:52;17.00;99.90
21861;DHT22;11095;48.066;8.540;2023-07-20T01:00:17;17.00;99.90
21861;DHT22;11095;48.066;8.540;2023-07-20T01:02:44;17.00;99.90
21861;DHT22;11095;48.066;8.540;2023-07-20T01:05:10;17.00;99.90
21861;DHT22;11095;48.066;8.540;2023-07-20T01:07:57;16.90;99.90
21861;DHT22;11095;48.066;8.540;2023-07-20T01:10:31;16.80;99.90
21861;DHT22;11095;48.066;8.540;2023-07-20T01:13:00;16.80;99.90
21861;DHT22;11095;48.066;8.540;2023-07-20T01:15:27;16.70;99.90
21861;DHT22;11095;48.066;8.540;2023-07-20T01:17:53;16.70;99.90
21861;DHT22;11095;48.066;8.540;2023-07-20T01:20:20;16.60;99.90
21861;DHT22;11095;48.066;8.540;2023-07-20T01:25:57;16.60;99.90
21861;DHT22;11095;48.066;8.540;2023-07-20T01:31:21;16.50;99.90
21861;DHT22;11095;48.066;8.540;2023-07-20T01:33:49;16.40;99.90
21861;DHT22;11095;48.066;8.540;2023-07-20T01:36:18;16.40;99.90
21861;DHT22;11095;48.066;8.540;2023-07-20T01:38:44;16.40;99.90
21861;DHT22;11095;48.066;8.540;2023-07-20T01:41:10;16.30;99.90
21861;DHT22;11095;48.066;8.540;2023-07-20T01:43:36;16.30;99.90
21861;DHT22;11095;48.066;8.540;2023-07-20T01:46:02;16.30;99.90
21861;DHT22;11095;48.066;8.540;2023-07-20T01:48:27;16.20;99.90
21861;DHT22;11095;48.066;8.540;2023-07-20T01:50:53;16.20;99.90
21861;DHT22;11095;48.066;8.540;2023-07-20T01:53:20;16.20;99.90
21861;DHT22;11095;48.066;8.540;2023-07-20T01:55:46;16.20;99.90
21861;DHT22;11095;48.066;8.540;2023-07-20T01:58:12;16.20;99.90
21861;DHT22;11095;48.066;8.540;2023-07-20T02:00:37;16.20;99.90
21861;DHT22;11095;48.066;8.540;2023-07-20T02:03:03;16.10;99.90
21861;DHT22;11095;48.066;8.540;2023-07-20T02:05:29;16.10;99.90
21861;DHT22;11095;48.066;8.540;2023-07-20T02:07:55;16.00;99.90
21861;DHT22;11095;48.066;8.540;2023-07-20T02:10:20;16.00;99.90
21861;DHT22;11095;48.066;8.540;2023-07-20T02:12:46;15.90;99.90
21861;DHT22;11095;48.066;8.540;2023-07-20T02:15:13;16.00;99.90
21861;DHT22;11095;48.066;8.540;2023-07-20T02:17:40;15.90;99.90
21861;DHT22;11095;48.066;8.540;2023-07-20T02:20:07;15.90;99.90
21861;DHT22;11095;48.066;8.540;2023-07-20T02:22:37;15.90;99.90
21861;DHT22;11095;48.066;8.540;2023-07-20T02:25:07;15.80;99.90
21861;DHT22;11095;48.066;8.540;2023-07-20T02:27:36;15.80;99.90
21861;DHT22;11095;48.066;8.540;2023-07-20T02:30:02;15.80;99.90
21861;DHT22;11095;48.066;8.540;2023-07-20T02:32:29;15.70;99.90
21861;DHT22;11095;48.066;8.540;2023-07-20T02:34:54;15.70;99.90
21861;DHT22;11095;48.066;8.540;2023-07-20T02:37:20;15.70;99.90
21861;DHT22;11095;48.066;8.540;2023-07-20T02:39:46;15.70;99.90
21861;DHT22;11095;48.066;8.540;2023-07-20T02:42:11;15.70;99.90
21861;DHT22;11095;48.066;8.540;2023-07-20T02:44:37;15.70;99.90
21861;DHT22;11095;48.066;8.540;2023-07-20T02:47:02;15.70;99.90
21861;DHT22;11095;48.066;8.540;2023-07-20T02:49:28;15.60;99.90
21861;DHT22;11095;48.066;8.540;2023-07-20T02:51:54;15.60;99.90
21861;DHT22;11095;48.066;8.540;2023-07-20T02:54:19;15.60;99.90
21861;DHT22;11095;48.066;8.540;2023-07-20T02:56:45;15.60;99.90
21861;DHT22;11095;48.066;8.540;2023-07-20T02:59:10;15.50;99.90
21861;DHT22;11095;48.066;8.540;2023-07-20T03:01:36;15.50;99.90
21861;DHT22;11095;48.066;8.540;2023-07-20T03:04:02;15.50;99.90
21861;DHT22;11095;48.066;8.540;2023-07-20T03:06:27;15.40;99.90
21861;DHT22;11095;48.066;8.540;2023-07-20T03:08:53;15.40;99.90
21861;DHT22;11095;48.066;8.540;2023-07-20T03:11:20;15.40;99.90
21861;DHT22;11095;48.066;8.540;2023-07-20T03:13:46;15.30;99.90
21861;DHT22;11095;48.066;8.540;2023-07-20T03:16:13;15.30;99.90
21861;DHT22;11095;48.066;8.540;2023-07-20T03:18:43;15.40;99.90
21861;DHT22;11095;48.066;8.540;2023-07-20T03:21:10;15.30;99.90
21861;DHT22;11095;48.066;8.540;2023-07-20T03:23:39;15.30;99.90
21861;DHT22;11095;48.066;8.540;2023-07-20T03:26:06;15.30;99.90
21861;DHT22;11095;48.066;8.540;2023-07-20T03:28:34;15.30;99.90
21861;DHT22;11095;48.066;8.540;2023-07-20T03:30:59;15.30;99.90
21861;DHT22;11095;48.066;8.540;2023-07-20T03:33:26;15.30;99.90
21861;DHT22;11095;48.066;8.540;2023-07-20T03:35:53;15.30;99.90
21861;DHT22;11095;48.066;8.540;2023-07-20T03:38:19;15.30;99.90
21861;DHT22;11095;48.066;8.540;2023-07-20T03:40:52;15.30;99.90
21861;DHT22;11095;48.066;8.540;2023-07-20T03:43:18;15.30;99.90
21861;DHT22;11095;48.066;8.540;2023-07-20T03:45:44;15.30;99.90
21861;DHT22;11095;48.066;8.540;2023-07-20T03:48:11;15.30;99.90
21861;DHT22;11095;48.066;8.540;2023-07-20T03:50:37;15.30;99.90
21861;DHT22;11095;48.066;8.540;2023-07-20T03:53:02;15.30;99.90
21861;DHT22;11095;48.066;8.540;2023-07-20T03:55:28;15.30;99.90
21861;DHT22;11095;48.066;8.540;2023-07-20T03:57:54;15.40;99.90
21861;DHT22;11095;48.066;8.540;2023-07-20T04:00:19;15.40;99.90
21861;DHT22;11095;48.066;8.540;2023-07-20T04:02:45;15.40;99.90
21861;DHT22;11095;48.066;8.540;2023-07-20T04:05:11;15.60;99.90
21861;DHT22;11095;48.066;8.540;2023-07-20T04:07:36;15.70;99.90
21861;DHT22;11095;48.066;8.540;2023-07-20T04:10:02;15.80;99.90
21861;DHT22;11095;48.066;8.540;2023-07-20T04:12:28;15.80;99.90
21861;DHT22;11095;48.066;8.540;2023-07-20T04:14:53;15.80;99.90
21861;DHT22;11095;48.066;8.540;2023-07-20T04:17:19;15.80;99.90
21861;DHT22;11095;48.066;8.540;2023-07-20T04:19:44;15.80;99.90
21861;DHT22;11095;48.066;8.540;2023-07-20T04:22:10;15.90;99.90
21861;DHT22;11095;48.066;8.540;2023-07-20T04:24:36;15.90;99.90
21861;DHT22;11095;48.066;8.540;2023-07-20T04:27:01;16.00;99.90
21861;DHT22;11095;48.066;8.540;2023-07-20T04:29:27;16.00;99.90
21861;DHT22;11095;48.066;8.540;2023-07-20T04:31:52;16.00;99.90
21861;DHT22;11095;48.066;8.540;2023-07-20T04:34:18;16.00;99.90
21861;DHT22;11095;48.066;8.540;2023-07-20T04:36:44;16.10;99.90
21861;DHT22;11095;48.066;8.540;2023-07-20T04:39:10;16.10;99.90
21861;DHT22;11095;48.066;8.540;2023-07-20T04:41:35;16.20;99.90
21861;DHT22;11095;48.066;8.540;2023-07-20T04:44:01;16.30;99.90
21861;DHT22;11095;48.066;8.540;2023-07-20T04:46:26;16.40;99.90
21861;DHT22;11095;48.066;8.540;2023-07-20T04:48:52;16.40;99.90
21861;DHT22;11095;48.066;8.540;2023-07-20T04:51:18;16.40;99.90
21861;DHT22;11095;48.066;8.540;2023-07-20T04:53:49;16.40;99.90
21861;DHT22;11095;48.066;8.540;2023-07-20T04:56:14;16.50;99.90
21861;DHT22;11095;48.066;8.540;2023-07-20T04:58:40;16.60;99.90
21861;DHT22;11095;48.066;8.540;2023-07-20T05:01:07;16.60;99.90
21861;DHT22;11095;48.066;8.540;2023-07-20T05:03:33;16.60;99.90
21861;DHT22;11095;48.066;8.540;2023-07-20T05:05:59;16.70;99.90
21861;DHT22;11095;48.066;8.540;2023-07-20T05:08:25;16.80;99.90
21861;DHT22;11095;48.066;8.540;2023-07-20T05:10:50;17.00;99.90
21861;DHT22;11095;48.066;8.540;2023-07-20T05:13:16;17.40;99.90
21861;DHT22;11095;48.066;8.540;2023-07-20T05:15:42;17.60;99.90
21861;DHT22;11095;48.066;8.540;2023-07-20T05:18:08;17.80;99.90
21861;DHT22;11095;48.066;8.540;2023-07-20T05:20:34;18.00;99.90
21861;DHT22;11095;48.066;8.540;2023-07-20T05:23:00;18.60;99.90
21861;DHT22;11095;48.066;8.540;2023-07-20T05:25:26;18.80;99.90
21861;DHT22;11095;48.066;8.540;2023-07-20T05:27:52;19.00;99.90
21861;DHT22;11095;48.066;8.540;2023-07-20T05:30:18;19.00;99.90
21861;DHT22;11095;48.066;8.540;2023-07-20T05:32:44;19.10;99.90
21861;DHT22;11095;48.066;8.540;2023-07-20T05:35:12;19.20;99.90
21861;DHT22;11095;48.066;8.540;2023-07-20T05:37:39;19.30;99.90
21861;DHT22;11095;48.066;8.540;2023-07-20T05:40:05;19.80;99.90
21861;DHT22;11095;48.066;8.540;2023-07-20T05:42:33;20.20;99.90
21861;DHT22;11095;48.066;8.540;2023-07-20T05:44:58;19.40;99.90
21861;DHT22;11095;48.066;8.540;2023-07-20T05:47:24;19.20;99.90
21861;DHT22;11095;48.066;8.540;2023-07-20T05:49:49;19.50;99.90
21861;DHT22;11095;48.066;8.540;2023-07-20T05:52:15;20.70;99.90
21861;DHT22;11095;48.066;8.540;2023-07-20T05:54:41;20.70;99.90
21861;DHT22;11095;48.066;8.540;2023-07-20T05:57:07;20.40;99.90
21861;DHT22;11095;48.066;8.540;2023-07-20T05:59:32;20.80;99.90
21861;DHT22;11095;48.066;8.540;2023-07-20T06:01:58;21.00;99.90
21861;DHT22;11095;48.066;8.540;2023-07-20T06:04:23;21.10;99.90
21861;DHT22;11095;48.066;8.540;2023-07-20T06:06:49;21.20;99.90
21861;DHT22;11095;48.066;8.540;2023-07-20T06:09:15;20.80;99.90
21861;DHT22;11095;48.066;8.540;2023-07-20T06:11:41;20.30;99.90
21861;DHT22;11095;48.066;8.540;2023-07-20T06:14:06;19.90;99.90
21861;DHT22;11095;48.066;8.540;2023-07-20T06:16:32;20.90;99.90
21861;DHT22;11095;48.066;8.540;2023-07-20T06:19:00;22.80;99.90
21861;DHT22;11095;48.066;8.540;2023-07-20T06:21:25;23.10;99.90
21861;DHT22;11095;48.066;8.540;2023-07-20T06:23:51;23.90;99.90
21861;DHT22;11095;48.066;8.540;2023-07-20T06:26:16;25.10;99.90
21861;DHT22;11095;48.066;8.540;2023-07-20T06:28:42;25.00;99.90
21861;DHT22;11095;48.066;8.540;2023-07-20T06:31:08;25.40;99.90
21861;DHT22;11095;48.066;8.540;2023-07-20T06:33:33;26.20;99.90
21861;DHT22;11095;48.066;8.540;2023-07-20T06:36:00;27.20;98.70
21861;DHT22;11095;48.066;8.540;2023-07-20T06:38:25;26.00;98.60
21861;DHT22;11095;48.066;8.540;2023-07-20T06:40:51;27.10;98.90
21861;DHT22;11095;48.066;8.540;2023-07-20T06:43:17;29.00;95.60
21861;DHT22;11095;48.066;8.540;2023-07-20T06:45:43;30.40;92.70
21861;DHT22;11095;48.066;8.540;2023-07-20T06:48:09;29.30;90.10
21861;DHT22;11095;48.066;8.540;2023-07-20T06:50:34;28.60;90.40
21861;DHT22;11095;48.066;8.540;2023-07-20T06:53:00;26.00;93.40
21861;DHT22;11095;48.066;8.540;2023-07-20T06:55:29;25.70;93.10
21861;DHT22;11095;48.066;8.540;2023-07-20T06:57:55;26.30;92.50
21861;DHT22;11095;48.066;8.540;2023-07-20T07:00:21;26.80;92.70
21861;DHT22;11095;48.066;8.540;2023-07-20T07:02:46;27.30;92.00
21861;DHT22;11095;48.066;8.540;2023-07-20T07:05:12;29.30;90.60
21861;DHT22;11095;48.066;8.540;2023-07-20T07:07:40;30.30;85.20
21861;DHT22;11095;48.066;8.540;2023-07-20T07:10:06;31.40;80.10
21861;DHT22;11095;48.066;8.540;2023-07-20T07:12:32;32.40;75.30
21861;DHT22;11095;48.066;8.540;2023-07-20T07:14:58;30.60;77.40
21861;DHT22;11095;48.066;8.540;2023-07-20T07:17:24;31.10;75.40
21861;DHT22;11095;48.066;8.540;2023-07-20T07:19:50;29.90;77.10
21861;DHT22;11095;48.066;8.540;2023-07-20T07:22:18;27.70;77.10
21861;DHT22;11095;48.066;8.540;2023-07-20T07:24:43;27.70;82.10
21861;DHT22;11095;48.066;8.540;2023-07-20T07:27:09;26.80;83.90
21861;DHT22;11095;48.066;8.540;2023-07-20T07:29:35;27.60;85.00
21861;DHT22;11095;48.066;8.540;2023-07-20T07:32:01;28.10;82.30
21861;DHT22;11095;48.066;8.540;2023-07-20T07:34:27;26.20;83.00
21861;DHT22;11095;48.066;8.540;2023-07-20T07:36:52;26.10;86.00
21861;DHT22;11095;48.066;8.540;2023-07-20T07:39:19;26.60;87.20
21861;DHT22;11095;48.066;8.540;2023-07-20T07:41:44;27.50;84.00
21861;DHT22;11095;48.066;8.540;2023-07-20T07:44:10;27.20;82.20
21861;DHT22;11095;48.066;8.540;2023-07-20T07:46:36;25.50;85.40
21861;DHT22;11095;48.066;8.540;2023-07-20T07:49:01;26.00;88.70
21861;DHT22;11095;48.066;8.540;2023-07-20T07:51:27;26.40;86.30
21861;DHT22;11095;48.066;8.540;2023-07-20T07:53:53;25.00;86.30
21861;DHT22;11095;48.066;8.540;2023-07-20T07:56:18;24.30;91.00
21861;DHT22;11095;48.066;8.540;2023-07-20T07:58:48;24.10;91.60
21861;DHT22;11095;48.066;8.540;2023-07-20T08:01:14;24.20;92.00
21861;DHT22;11095;48.066;8.540;2023-07-20T08:03:40;24.30;92.40
21861;DHT22;11095;48.066;8.540;2023-07-20T08:06:05;24.40;92.10
21861;DHT22;11095;48.066;8.540;2023-07-20T08:08:32;24.60;92.10
21861;DHT22;11095;48.066;8.540;2023-07-20T08:10:58;25.10;91.80
21861;DHT22;11095;48.066;8.540;2023-07-20T08:13:24;25.50;91.40
21861;DHT22;11095;48.066;8.540;2023-07-20T08:15:50;25.80;91.00
21861;DHT22;11095;48.066;8.540;2023-07-20T08:18:19;26.00;90.80
21861;DHT22;11095;48.066;8.540;2023-07-20T08:20:45;26.20;90.30
21861;DHT22;11095;48.066;8.540;2023-07-20T08:23:12;26.40;90.10
21861;DHT22;11095;48.066;8.540;2023-07-20T08:25:38;26.60;87.70
21861;DHT22;11095;48.066;8.540;2023-07-20T08:28:05;27.10;87.00
21861;DHT22;11095;48.066;8.540;2023-07-20T08:30:44;27.30;86.20
21861;DHT22;11095;48.066;8.540;2023-07-20T08:33:10;27.30;85.40
21861;DHT22;11095;48.066;8.540;2023-07-20T08:35:37;27.20;87.00
21861;DHT22;11095;48.066;8.540;2023-07-20T08:38:02;26.90;85.50
21861;DHT22;11095;48.066;8.540;2023-07-20T08:40:33;26.90;86.20
21861;DHT22;11095;48.066;8.540;2023-07-20T08:42:59;26.70;85.00
21861;DHT22;11095;48.066;8.540;2023-07-20T08:45:28;26.90;85.60
21861;DHT22;11095;48.066;8.540;2023-07-20T08:47:56;26.90;85.40
21861;DHT22;11095;48.066;8.540;2023-07-20T08:50:25;26.80;86.10
21861;DHT22;11095;48.066;8.540;2023-07-20T08:52:53;26.60;86.00
21861;DHT22;11095;48.066;8.540;2023-07-20T08:55:23;26.10;85.20
21861;DHT22;11095;48.066;8.540;2023-07-20T08:57:56;26.30;87.20
21861;DHT22;11095;48.066;8.540;2023-07-20T09:00:23;27.10;86.10
21861;DHT22;11095;48.066;8.540;2023-07-20T09:02:50;27.70;84.00
21861;DHT22;11095;48.066;8.540;2023-07-20T09:05:17;27.60;82.40
21861;DHT22;11095;48.066;8.540;2023-07-20T09:07:43;27.70;83.60
21861;DHT22;11095;48.066;8.540;2023-07-20T09:10:09;27.80;82.90
21861;DHT22;11095;48.066;8.540;2023-07-20T09:12:37;27.80;82.50
21861;DHT22;11095;48.066;8.540;2023-07-20T09:15:04;27.70;83.00
21861;DHT22;11095;48.066;8.540;2023-07-20T09:17:33;27.30;82.70
21861;DHT22;11095;48.066;8.540;2023-07-20T09:19:59;27.00;83.40
21861;DHT22;11095;48.066;8.540;2023-07-20T09:22:30;26.70;84.40
21861;DHT22;11095;48.066;8.540;2023-07-20T09:24:57;27.30;83.50
21861;DHT22;11095;48.066;8.540;2023-07-20T09:27:34;28.10;80.80
21861;DHT22;11095;48.066;8.540;2023-07-20T09:30:01;28.80;80.50
21861;DHT22;11095;48.066;8.540;2023-07-20T09:32:27;29.60;80.40
21861;DHT22;11095;48.066;8.540;2023-07-20T09:34:53;30.30;78.60
21861;DHT22;11095;48.066;8.540;2023-07-20T09:37:22;30.60;74.50
21861;DHT22;11095;48.066;8.540;2023-07-20T09:39:48;30.70;74.20
21861;DHT22;11095;48.066;8.540;2023-07-20T09:42:16;30.90;74.90
21861;DHT22;11095;48.066;8.540;2023-07-20T09:44:45;31.30;74.60
21861;DHT22;11095;48.066;8.540;2023-07-20T09:47:11;31.40;72.10
21861;DHT22;11095;48.066;8.540;2023-07-20T09:49:40;30.90;71.50
21861;DHT22;11095;48.066;8.540;2023-07-20T09:52:10;30.30;72.70
21861;DHT22;11095;48.066;8.540;2023-07-20T09:54:40;30.20;73.40
21861;DHT22;11095;48.066;8.540;2023-07-20T09:57:06;30.70;72.80
21861;DHT22;11095;48.066;8.540;2023-07-20T09:59:33;31.30;71.10
21861;DHT22;11095;48.066;8.540;2023-07-20T10:02:01;31.40;70.90
21861;DHT22;11095;48.066;8.540;2023-07-20T10:04:29;30.70;71.60
21861;DHT22;11095;48.066;8.540;2023-07-20T10:06:55;30.40;69.70
21861;DHT22;11095;48.066;8.540;2023-07-20T10:09:25;30.00;71.90
21861;DHT22;11095;48.066;8.540;2023-07-20T10:11:53;29.30;71.50
21861;DHT22;11095;48.066;8.540;2023-07-20T10:14:20;28.70;73.10
21861;DHT22;11095;48.066;8.540;2023-07-20T10:16:50;28.60;75.40
21861;DHT22;11095;48.066;8.540;2023-07-20T10:19:32;28.70;74.20
21861;DHT22;11095;48.066;8.540;2023-07-20T10:22:13;28.80;74.60
21861;DHT22;11095;48.066;8.540;2023-07-20T10:24:39;28.60;73.40
21861;DHT22;11095;48.066;8.540;2023-07-20T10:27:06;28.90;75.50
21861;DHT22;11095;48.066;8.540;2023-07-20T10:29:32;29.30;75.10
21861;DHT22;11095;48.066;8.540;2023-07-20T10:31:58;29.50;74.20
21861;DHT22;11095;48.066;8.540;2023-07-20T10:34:24;29.30;72.00
21861;DHT22;11095;48.066;8.540;2023-07-20T10:36:50;29.00;73.70
21861;DHT22;11095;48.066;8.540;2023-07-20T10:39:27;29.30;75.00
21861;DHT22;11095;48.066;8.540;2023-07-20T10:42:01;29.20;74.20
21861;DHT22;11095;48.066;8.540;2023-07-20T10:44:28;29.60;72.00
21861;DHT22;11095;48.066;8.540;2023-07-20T10:46:59;29.50;70.60
21861;DHT22;11095;48.066;8.540;2023-07-20T10:49:26;28.00;70.40
21861;DHT22;11095;48.066;8.540;2023-07-20T10:51:59;27.20;72.60
21861;DHT22;11095;48.066;8.540;2023-07-20T10:56:56;26.20;75.70
21861;DHT22;11095;48.066;8.540;2023-07-20T11:01:59;27.20;79.20
21861;DHT22;11095;48.066;8.540;2023-07-20T11:04:52;28.00;78.30
21861;DHT22;11095;48.066;8.540;2023-07-20T11:07:36;28.70;75.30
21861;DHT22;11095;48.066;8.540;2023-07-20T11:10:13;28.30;72.20
21861;DHT22;11095;48.066;8.540;2023-07-20T11:12:40;28.30;75.00
21861;DHT22;11095;48.066;8.540;2023-07-20T11:15:06;28.40;74.00
21861;DHT22;11095;48.066;8.540;2023-07-20T11:17:33;28.40;74.00
21861;DHT22;11095;48.066;8.540;2023-07-20T11:20:00;28.30;72.00
21861;DHT22;11095;48.066;8.540;2023-07-20T11:22:26;28.00;72.50
21861;DHT22;11095;48.066;8.540;2023-07-20T11:24:55;27.50;74.20
21861;DHT22;11095;48.066;8.540;2023-07-20T11:27:21;27.60;74.30
21861;DHT22;11095;48.066;8.540;2023-07-20T11:29:50;27.50;74.80
21861;DHT22;11095;48.066;8.540;2023-07-20T11:32:24;27.40;74.40
21861;DHT22;11095;48.066;8.540;2023-07-20T11:34:50;27.30;74.50
21861;DHT22;11095;48.066;8.540;2023-07-20T11:37:17;27.30;75.00
21861;DHT22;11095;48.066;8.540;2023-07-20T11:39:42;27.50;76.00
21861;DHT22;11095;48.066;8.540;2023-07-20T11:42:08;27.80;75.80
21861;DHT22;11095;48.066;8.540;2023-07-20T11:44:34;28.10;75.10
21861;DHT22;11095;48.066;8.540;2023-07-20T11:49:26;28.10;74.50
21861;DHT22;11095;48.066;8.540;2023-07-20T11:51:52;26.60;72.70
21861;DHT22;11095;48.066;8.540;2023-07-20T11:54:18;25.70;77.00
21861;DHT22;11095;48.066;8.540;2023-07-20T11:56:44;25.30;76.20
21861;DHT22;11095;48.066;8.540;2023-07-20T11:59:09;24.40;78.80
21861;DHT22;11095;48.066;8.540;2023-07-20T12:01:35;24.90;81.10
21861;DHT22;11095;48.066;8.540;2023-07-20T12:04:02;25.60;81.00
21861;DHT22;11095;48.066;8.540;2023-07-20T12:06:29;26.30;77.60
21861;DHT22;11095;48.066;8.540;2023-07-20T12:08:58;26.90;77.10
21861;DHT22;11095;48.066;8.540;2023-07-20T12:11:34;27.30;77.70
21861;DHT22;11095;48.066;8.540;2023-07-20T12:14:00;27.70;75.50
21861;DHT22;11095;48.066;8.540;2023-07-20T12:16:29;27.80;72.70
21861;DHT22;11095;48.066;8.540;2023-07-20T12:21:34;27.80;73.60
21861;DHT22;11095;48.066;8.540;2023-07-20T12:24:02;27.70;74.10
21861;DHT22;11095;48.066;8.540;2023-07-20T12:26:29;27.90;74.30
21861;DHT22;11095;48.066;8.540;2023-07-20T12:28:55;27.10;73.00
21861;DHT22;11095;48.066;8.540;2023-07-20T12:31:21;26.90;74.20
21861;DHT22;11095;48.066;8.540;2023-07-20T12:33:48;26.90;74.70
21861;DHT22;11095;48.066;8.540;2023-07-20T12:36:14;27.30;75.40
21861;DHT22;11095;48.066;8.540;2023-07-20T12:38:40;27.60;73.10
21861;DHT22;11095;48.066;8.540;2023-07-20T12:41:07;27.60;73.70
21861;DHT22;11095;48.066;8.540;2023-07-20T12:43:33;27.60;73.30
21861;DHT22;11095;48.066;8.540;2023-07-20T12:45:59;27.60;73.30
21861;DHT22;11095;48.066;8.540;2023-07-20T12:48:24;27.50;73.40
21861;DHT22;11095;48.066;8.540;2023-07-20T12:50:50;27.50;73.50
21861;DHT22;11095;48.066;8.540;2023-07-20T12:53:16;27.30;72.50
21861;DHT22;11095;48.066;8.540;2023-07-20T12:55:42;27.00;72.60
21861;DHT22;11095;48.066;8.540;2023-07-20T12:58:08;27.10;75.30
21861;DHT22;11095;48.066;8.540;2023-07-20T13:00:34;27.20;73.80
21861;DHT22;11095;48.066;8.540;2023-07-20T13:02:59;27.50;74.20
21861;DHT22;11095;48.066;8.540;2023-07-20T13:05:25;26.60;73.10
21861;DHT22;11095;48.066;8.540;2023-07-20T13:07:51;26.80;74.80
21861;DHT22;11095;48.066;8.540;2023-07-20T13:10:17;26.80;72.70
21861;DHT22;11095;48.066;8.540;2023-07-20T13:12:44;26.70;73.50
21861;DHT22;11095;48.066;8.540;2023-07-20T13:15:10;26.90;71.90
21861;DHT22;11095;48.066;8.540;2023-07-20T13:17:38;27.10;71.10
21861;DHT22;11095;48.066;8.540;2023-07-20T13:20:05;27.40;72.00
21861;DHT22;11095;48.066;8.540;2023-07-20T13:22:32;27.40;72.00
21861;DHT22;11095;48.066;8.540;2023-07-20T13:24:57;27.50;72.00
21861;DHT22;11095;48.066;8.540;2023-07-20T13:27:23;27.60;72.80
21861;DHT22;11095;48.066;8.540;2023-07-20T13:29:51;27.80;72.20
21861;DHT22;11095;48.066;8.540;2023-07-20T13:32:16;28.10;72.80
21861;DHT22;11095;48.066;8.540;2023-07-20T13:34:46;27.30;69.30
21861;DHT22;11095;48.066;8.540;2023-07-20T13:37:12;27.30;72.20
21861;DHT22;11095;48.066;8.540;2023-07-20T13:39:38;27.20;71.90
21861;DHT22;11095;48.066;8.540;2023-07-20T13:42:04;27.10;72.40
21861;DHT22;11095;48.066;8.540;2023-07-20T13:44:34;26.70;71.60
21861;DHT22;11095;48.066;8.540;2023-07-20T13:47:00;26.20;73.10
21861;DHT22;11095;48.066;8.540;2023-07-20T13:49:26;25.90;73.80
21861;DHT22;11095;48.066;8.540;2023-07-20T13:51:52;24.50;74.90
21861;DHT22;11095;48.066;8.540;2023-07-20T13:54:17;24.30;77.10
21861;DHT22;11095;48.066;8.540;2023-07-20T13:56:43;24.00;77.40
21861;DHT22;11095;48.066;8.540;2023-07-20T13:59:09;24.00;77.20
21861;DHT22;11095;48.066;8.540;2023-07-20T14:01:34;24.50;78.70
21861;DHT22;11095;48.066;8.540;2023-07-20T14:04:01;25.10;76.90
21861;DHT22;11095;48.066;8.540;2023-07-20T14:06:29;25.60;74.20
21861;DHT22;11095;48.066;8.540;2023-07-20T14:08:55;25.30;73.10
21861;DHT22;11095;48.066;8.540;2023-07-20T14:11:21;25.50;74.00
21861;DHT22;11095;48.066;8.540;2023-07-20T14:13:47;25.60;73.90
21861;DHT22;11095;48.066;8.540;2023-07-20T14:16:12;25.90;74.80
21861;DHT22;11095;48.066;8.540;2023-07-20T14:18:38;26.30;74.80
21861;DHT22;11095;48.066;8.540;2023-07-20T14:21:04;26.70;74.40
21861;DHT22;11095;48.066;8.540;2023-07-20T14:23:32;27.10;72.60
21861;DHT22;11095;48.066;8.540;2023-07-20T14:25:58;27.50;71.10
21861;DHT22;11095;48.066;8.540;2023-07-20T14:28:24;27.70;70.30
21861;DHT22;11095;48.066;8.540;2023-07-20T14:30:50;27.60;68.10
21861;DHT22;11095;48.066;8.540;2023-07-20T14:33:15;27.50;67.60
21861;DHT22;11095;48.066;8.540;2023-07-20T14:35:41;27.40;69.50
21861;DHT22;11095;48.066;8.540;2023-07-20T14:38:07;27.40;67.80
21861;DHT22;11095;48.066;8.540;2023-07-20T14:40:32;27.30;69.10
21861;DHT22;11095;48.066;8.540;2023-07-20T14:42:58;27.30;68.60
21861;DHT22;11095;48.066;8.540;2023-07-20T14:45:29;27.40;69.70
21861;DHT22;11095;48.066;8.540;2023-07-20T14:47:55;26.80;67.90
21861;DHT22;11095;48.066;8.540;2023-07-20T14:50:21;26.70;69.50
21861;DHT22;11095;48.066;8.540;2023-07-20T14:52:46;26.40;68.70
21861;DHT22;11095;48.066;8.540;2023-07-20T14:55:13;26.50;69.40
21861;DHT22;11095;48.066;8.540;2023-07-20T14:57:38;26.50;71.10
21861;DHT22;11095;48.066;8.540;2023-07-20T15:00:05;26.70;70.60
21861;DHT22;11095;48.066;8.540;2023-07-20T15:02:36;26.60;68.70
21861;DHT22;11095;48.066;8.540;2023-07-20T15:05:02;26.50;69.10
21861;DHT22;11095;48.066;8.540;2023-07-20T15:07:28;26.20;71.00
21861;DHT22;11095;48.066;8.540;2023-07-20T15:09:54;26.00;70.30
21861;DHT22;11095;48.066;8.540;2023-07-20T15:12:19;25.90;70.50
21861;DHT22;11095;48.066;8.540;2023-07-20T15:15:01;26.00;72.30
21861;DHT22;11095;48.066;8.540;2023-07-20T15:17:29;25.10;71.00
21861;DHT22;11095;48.066;8.540;2023-07-20T15:19:54;25.00;73.10
21861;DHT22;11095;48.066;8.540;2023-07-20T15:22:20;25.00;73.70
21861;DHT22;11095;48.066;8.540;2023-07-20T15:24:47;25.40;74.70
21861;DHT22;11095;48.066;8.540;2023-07-20T15:27:13;25.80;72.30
21861;DHT22;11095;48.066;8.540;2023-07-20T15:29:38;25.90;73.10
21861;DHT22;11095;48.066;8.540;2023-07-20T15:32:04;26.10;72.70
21861;DHT22;11095;48.066;8.540;2023-07-20T15:34:31;26.00;72.20
21861;DHT22;11095;48.066;8.540;2023-07-20T15:36:57;25.60;72.10
21861;DHT22;11095;48.066;8.540;2023-07-20T15:39:22;25.40;75.40
21861;DHT22;11095;48.066;8.540;2023-07-20T15:41:49;25.30;73.60
21861;DHT22;11095;48.066;8.540;2023-07-20T15:44:14;24.50;73.40